Time;durP1;ratioP1;P1;durP2;ratioP2;P2;SDS_P1;SDS_P2;PMS_P1;PMS_P2;Temp;Humidity;BMP_temperature;BMP_pressure;BME280_temperature;BME280_humidity;BME280_pressure;Samples;Min_cycle;Max_cycle;Signal;HPM_P1;HPM_P2
2022/07/18 00:00:32;;;;;;;9.98;5.18;;;18.00;99.60;;;;;;4883737;29;20405;-74
2022/07/18 00:02:58;;;;;;;11.27;5.28;;;;;;;;;;4883016;29;20405;-74
2022/07/18 00:05:24;;;;;;;11.40;5.18;;;17.80;99.60;;;;;;4882405;29;20485;-73
2022/07/18 00:07:50;;;;;;;7.90;5.28;;;;;;;;;;4882494;29;20048;-73
2022/07/18 00:10:16;;;;;;;14.50;5.47;;;20.10;99.90;;;;;;4883107;29;20049;-73
2022/07/18 00:12:42;;;;;;;9.68;5.47;;;17.80;99.90;;;;;;4900184;29;20077;-74
2022/07/18 00:15:09;;;;;;;9.10;5.55;;;20.00;99.90;;;;;;4883181;29;20501;-74
2022/07/18 00:17:36;;;;;;;10.65;5.47;;;18.00;99.90;;;;;;4883338;29;20439;-73
2022/07/18 00:20:03;;;;;;;10.38;5.57;;;18.80;96.60;;;;;;4914314;29;20053;-73
2022/07/18 00:22:29;;;;;;;11.80;5.47;;;19.30;99.90;;;;;;4882749;29;20072;-73
2022/07/18 00:24:55;;;;;;;10.60;5.05;;;;;;;;;;4867623;29;20080;-73
2022/07/18 00:27:20;;;;;;;8.55;5.75;;;19.00;99.90;;;;;;4882966;29;20043;-73
2022/07/18 00:29:46;;;;;;;11.07;5.50;;;17.80;99.90;;;;;;4914389;29;20052;-73
2022/07/18 00:32:12;;;;;;;11.65;6.13;;;19.20;97.00;;;;;;4899687;29;20040;-73
2022/07/18 00:34:38;;;;;;;10.98;6.35;;;19.70;99.90;;;;;;4882712;29;20502;-73
2022/07/18 00:37:04;;;;;;;13.02;6.55;;;19.60;99.90;;;;;;4887805;29;20048;-73
2022/07/18 00:39:30;;;;;;;13.10;6.30;;;;;;;;;;4899502;29;20041;-73
2022/07/18 00:41:56;;;;;;;12.40;7.20;;;19.00;99.90;;;;;;4899512;29;20095;-73
2022/07/18 00:44:24;;;;;;;11.27;6.38;;;18.20;99.90;;;;;;4882577;29;20516;-73
2022/07/18 00:46:52;;;;;;;12.05;6.88;;;19.20;99.90;;;;;;4882456;29;20468;-73
2022/07/18 00:49:18;;;;;;;12.68;6.38;;;19.10;99.90;;;;;;4867214;29;20055;-73
2022/07/18 00:51:44;;;;;;;12.30;7.20;;;19.10;99.90;;;;;;4913551;29;20048;-73
2022/07/18 00:54:10;;;;;;;12.98;7.07;;;19.50;99.90;;;;;;4882448;29;20071;-73
2022/07/18 00:56:36;;;;;;;14.35;7.13;;;19.40;99.90;;;;;;4913622;29;20493;-73
2022/07/18 00:59:02;;;;;;;12.25;7.22;;;19.40;99.90;;;;;;4899018;29;20048;-73
2022/07/18 01:01:43;;;;;;;12.90;7.70;;;17.90;99.90;;;;;;4867250;29;20076;-73
2022/07/18 01:04:21;;;;;;;14.25;6.85;;;18.90;99.90;;;;;;4900337;29;20489;-73
2022/07/18 01:06:48;;;;;;;15.90;6.85;;;17.40;99.90;;;;;;4899053;29;20124;-73
2022/07/18 01:09:15;;;;;;;11.98;7.07;;;19.20;99.90;;;;;;4899186;29;20052;-74
2022/07/18 01:11:44;;;;;;;14.05;7.68;;;18.70;99.90;;;;;;4896623;29;20128;-74
2022/07/18 01:14:10;;;;;;;12.20;6.97;;;18.60;99.90;;;;;;4881837;29;20401;-74
2022/07/18 01:16:36;;;;;;;13.95;7.45;;;17.40;99.90;;;;;;4913682;29;20055;-74
2022/07/18 01:19:03;;;;;;;12.80;7.15;;;19.10;99.90;;;;;;4887121;29;20044;-74
2022/07/18 01:21:29;;;;;;;14.20;7.15;;;19.00;99.90;;;;;;4881779;29;20048;-74
2022/07/18 01:23:55;;;;;;;15.27;7.57;;;19.40;99.90;;;;;;4903950;29;20045;-74
2022/07/18 01:26:21;;;;;;;11.73;6.68;;;17.20;99.90;;;;;;4881952;29;20041;-74
2022/07/18 01:28:47;;;;;;;16.20;8.10;;;19.00;99.90;;;;;;4866780;29;20105;-74
2022/07/18 01:31:13;;;;;;;12.10;7.18;;;16.90;99.90;;;;;;4882117;29;20121;-74
2022/07/18 01:33:39;;;;;;;10.73;6.75;;;19.20;99.90;;;;;;4882033;29;20092;-73
2022/07/18 01:36:06;;;;;;;13.02;7.43;;;19.00;99.90;;;;;;4898503;29;20438;-74
2022/07/18 01:38:33;;;;;;;13.88;7.85;;;19.30;99.90;;;;;;4881515;29;20197;-73
2022/07/18 01:41:00;;;;;;;14.48;7.35;;;17.00;99.90;;;;;;4881952;29;20040;-73
2022/07/18 01:43:27;;;;;;;16.52;8.25;;;18.10;99.90;;;;;;4881583;29;20044;-73
2022/07/18 01:45:54;;;;;;;16.65;7.82;;;18.30;97.80;;;;;;4897103;29;20052;-74
2022/07/18 01:48:23;;;;;;;13.77;8.15;;;17.90;99.90;;;;;;4865946;29;20051;-74
2022/07/18 01:50:49;;;;;;;13.77;7.70;;;17.30;99.90;;;;;;4866278;29;20450;-73
2022/07/18 01:53:15;;;;;;;12.13;7.47;;;;;;;;;;4881450;29;20113;-74
2022/07/18 01:55:41;;;;;;;12.50;7.78;;;19.10;99.90;;;;;;4881292;29;20493;-74
2022/07/18 01:58:06;;;;;;;19.10;8.30;;;18.10;99.90;;;;;;4881425;29;20054;-73
2022/07/18 02:00:32;;;;;;;15.27;8.00;;;17.90;99.90;;;;;;4898448;29;20049;-73
2022/07/18 02:02:58;;;;;;;15.52;8.60;;;;;;;;;;4896717;29;20430;-74
2022/07/18 02:05:24;;;;;;;15.80;8.60;;;18.20;99.90;;;;;;4880255;29;20493;-73
2022/07/18 02:07:50;;;;;;;13.82;7.50;;;;;;;;;;4897314;29;20096;-73
2022/07/18 02:10:19;;;;;;;14.57;8.13;;;18.20;97.70;;;;;;4897754;29;20095;-74
2022/07/18 02:12:45;;;;;;;12.55;7.60;;;19.20;99.90;;;;;;4881609;29;20036;-74
2022/07/18 02:15:12;;;;;;;13.20;7.85;;;18.30;97.60;;;;;;4898629;29;20116;-74
2022/07/18 02:17:39;;;;;;;15.75;7.82;;;19.20;99.90;;;;;;4880658;29;20036;-74
2022/07/18 02:20:07;;;;;;;16.92;7.85;;;16.80;99.90;;;;;;4880791;29;20409;-73
2022/07/18 02:22:33;;;;;;;17.75;8.15;;;;;;;;;;4881593;29;20084;-73
2022/07/18 02:24:59;;;;;;;15.85;8.02;;;;;;;;;;4881120;29;20079;-73
2022/07/18 02:27:25;;;;;;;15.65;8.30;;;16.90;99.20;;;;;;4896657;29;20045;-73
2022/07/18 02:29:51;;;;;;;18.45;8.05;;;;;;;;;;4865652;29;20049;-73
2022/07/18 02:32:18;;;;;;;11.35;7.18;;;17.90;99.90;;;;;;4881281;29;20048;-73
2022/07/18 02:34:44;;;;;;;20.75;8.38;;;;;;;;;;4880775;29;20036;-73
2022/07/18 02:37:10;;;;;;;17.63;8.25;;;17.90;99.90;;;;;;4897811;29;20047;-73
2022/07/18 02:39:37;;;;;;;12.70;8.13;;;;;;;;;;4880938;29;20044;-74
2022/07/18 02:42:04;;;;;;;15.93;8.98;;;18.00;96.30;;;;;;4912957;29;20115;-74
2022/07/18 02:44:30;;;;;;;14.20;8.07;;;;;;;;;;4880631;29;20040;-74
2022/07/18 02:46:56;;;;;;;17.58;8.40;;;17.40;99.90;;;;;;4881110;29;20120;-74
2022/07/18 02:49:27;;;;;;;16.60;8.20;;;18.10;99.90;;;;;;4909961;29;20127;-74
2022/07/18 02:52:08;;;;;;;13.67;8.77;;;18.00;99.90;;;;;;4865713;29;20048;-74
2022/07/18 02:54:36;;;;;;;12.55;7.93;;;17.80;96.50;;;;;;4885252;29;20292;-74
2022/07/18 02:57:02;;;;;;;17.17;8.57;;;;;;;;;;4881099;29;20059;-73
2022/07/18 02:59:29;;;;;;;15.82;8.50;;;;;;;;;;4880566;29;20047;-74
2022/07/18 03:01:55;;;;;;;18.02;8.98;;;18.80;99.90;;;;;;4896473;29;20045;-74
2022/07/18 03:04:21;;;;;;;16.02;9.15;;;;;;;;;;4896988;29;20489;-73
2022/07/18 03:06:47;;;;;;;16.73;9.23;;;;;;;;;;4880889;29;20572;-73
2022/07/18 03:09:14;;;;;;;16.38;8.85;;;;;;;;;;4880315;29;20494;-73
2022/07/18 03:11:40;;;;;;;16.65;8.43;;;;;;;;;;4896664;29;20063;-73
2022/07/18 03:14:07;;;;;;;17.30;8.85;;;16.60;99.80;;;;;;4880383;29;20041;-74
2022/07/18 03:16:33;;;;;;;15.13;8.50;;;;;;;;;;4896628;29;20055;-74
2022/07/18 03:18:59;;;;;;;15.35;9.07;;;;;;;;;;4883907;29;20048;-73
2022/07/18 03:21:25;;;;;;;17.88;9.02;;;;;;;;;;4900759;29;20048;-74
2022/07/18 03:23:51;;;;;;;14.57;9.50;;;;;;;;;;4884015;29;20083;-73
2022/07/18 03:26:17;;;;;;;16.63;8.43;;;;;;;;;;4883828;29;20037;-74
2022/07/18 03:28:43;;;;;;;19.65;8.90;;;;;;;;;;4883792;29;20056;-73
2022/07/18 03:31:11;;;;;;;17.25;8.93;;;;;;;;;;4883923;29;20052;-73
2022/07/18 03:33:37;;;;;;;17.75;9.27;;;;;;;;;;4915510;29;20157;-73
2022/07/18 03:36:03;;;;;;;17.10;8.70;;;;;;;;;;4883835;29;20169;-74
2022/07/18 03:38:29;;;;;;;18.58;8.75;;;;;;;;;;4908171;29;20089;-73
2022/07/18 03:40:55;;;;;;;16.35;8.63;;;;;;;;;;4883796;29;20093;-74
2022/07/18 03:43:21;;;;;;;18.63;8.95;;;18.40;99.90;;;;;;4884149;29;20131;-74
2022/07/18 03:45:47;;;;;;;16.55;8.98;;;;;;;;;;4897971;29;20541;-74
2022/07/18 03:48:14;;;;;;;15.07;9.73;;;17.50;95.60;;;;;;4883614;29;20447;-73
2022/07/18 03:50:40;;;;;;;21.13;8.98;;;;;;;;;;4891027;29;20045;-73
2022/07/18 03:53:06;;;;;;;20.27;8.55;;;;;;;;;;4900598;29;20464;-73
2022/07/18 03:55:32;;;;;;;15.27;9.07;;;16.30;99.70;;;;;;4883395;29;20055;-73
2022/07/18 03:57:58;;;;;;;16.50;8.52;;;;;;;;;;4883439;29;20040;-73
2022/07/18 04:00:24;;;;;;;20.00;9.10;;;17.40;99.90;;;;;;4883398;29;20102;-74
2022/07/18 04:02:50;;;;;;;18.65;9.00;;;;;;;;;;4903026;29;20060;-74
2022/07/18 04:05:16;;;;;;;15.95;8.68;;;;;;;;;;4883890;29;20455;-74
2022/07/18 04:07:42;;;;;;;16.77;9.05;;;;;;;;;;4900046;29;20060;-74
2022/07/18 04:10:09;;;;;;;16.90;8.38;;;17.30;99.90;;;;;;4885478;29;20056;-73
2022/07/18 04:12:43;;;;;;;18.15;9.02;;;16.40;99.70;;;;;;4867697;29;20463;-74
2022/07/18 04:15:10;;;;;;;15.77;8.68;;;;;;;;;;4883285;29;20063;-73
2022/07/18 04:17:36;;;;;;;17.60;8.82;;;;;;;;;;4867316;29;20055;-73
2022/07/18 04:20:02;;;;;;;16.42;9.27;;;17.30;96.00;;;;;;4882988;29;20041;-73
2022/07/18 04:22:29;;;;;;;17.65;8.90;;;;;;;;;;4883128;29;20044;-73
2022/07/18 04:24:54;;;;;;;14.63;8.73;;;17.10;99.80;;;;;;4883158;29;20037;-73
2022/07/18 04:27:20;;;;;;;16.08;8.65;;;;;;;;;;4867457;29;20059;-73
2022/07/18 04:29:46;;;;;;;16.42;9.05;;;;;;;;;;4882250;29;20040;-74
2022/07/18 04:32:12;;;;;;;15.73;8.75;;;;;;;;;;4882640;29;20052;-74
2022/07/18 04:34:38;;;;;;;16.17;8.32;;;;;;;;;;4867530;29;20048;-71
2022/07/18 04:37:04;;;;;;;24.10;11.50;;;18.00;99.90;;;;;;4882753;29;20049;-69
2022/07/18 04:39:30;;;;;;;15.00;8.35;;;;;;;;;;4882674;29;20052;-70
2022/07/18 04:41:56;;;;;;;17.95;8.80;;;;;;;;;;4881941;29;20044;-70
2022/07/18 04:44:22;;;;;;;16.83;8.65;;;;;;;;;;4882893;29;20100;-70
2022/07/18 04:46:48;;;;;;;16.85;8.43;;;18.00;99.60;;;;;;4896959;29;20036;-70
2022/07/18 04:49:14;;;;;;;14.68;7.65;;;;;;;;;;4882624;29;20071;-70
2022/07/18 04:51:40;;;;;;;18.30;8.75;;;;;;;;;;4882435;29;20096;-72
2022/07/18 04:54:08;;;;;;;14.60;8.35;;;;;;;;;;4882649;29;20056;-72
2022/07/18 04:56:34;;;;;;;19.92;9.18;;;;;;;;;;4897800;29;20048;-73
2022/07/18 04:59:00;;;;;;;17.60;9.10;;;;;;;;;;4882267;29;20080;-72
2022/07/18 05:01:25;;;;;;;18.38;8.70;;;18.40;99.60;;;;;;4882372;29;20105;-72
2022/07/18 05:03:51;;;;;;;16.70;8.85;;;18.50;99.60;;;;;;4882505;29;20040;-72
2022/07/18 05:06:17;;;;;;;16.13;8.60;;;;;;;;;;4882518;29;20362;-72
2022/07/18 05:08:43;;;;;;;17.45;8.40;;;17.40;99.30;;;;;;4881924;29;20056;-73
2022/07/18 05:11:09;;;;;;;17.42;8.00;;;17.20;99.30;;;;;;4902620;29;20048;-72
2022/07/18 05:13:34;;;;;;;17.15;8.65;;;16.60;98.10;;;;;;4879758;29;20041;-73
2022/07/18 05:16:00;;;;;;;16.77;8.88;;;;;;;;;;4872697;29;20486;-72
2022/07/18 05:18:26;;;;;;;17.77;9.00;;;16.90;99.10;;;;;;4879177;29;20068;-72
2022/07/18 05:20:52;;;;;;;15.60;9.00;;;;;;;;;;4911631;29;20485;-72
2022/07/18 05:23:18;;;;;;;15.48;8.48;;;;;;;;;;4881155;29;20032;-72
2022/07/18 05:25:44;;;;;;;15.35;7.93;;;;;;;;;;4865594;29;20397;-72
2022/07/18 05:28:11;;;;;;;21.92;8.75;;;17.60;95.50;;;;;;4881225;29;20040;-72
2022/07/18 05:30:37;;;;;;;14.10;7.55;;;;;;;;;;4881148;29;20152;-73
2022/07/18 05:33:03;;;;;;;19.48;8.10;;;;;;;;;;4863125;29;20048;-73
2022/07/18 05:35:29;;;;;;;16.10;7.95;;;;;;;;;;4880905;29;20060;-73
2022/07/18 05:37:55;;;;;;;18.45;8.30;;;;;;;;;;4880739;29;20047;-73
2022/07/18 05:40:21;;;;;;;15.27;7.97;;;17.20;99.10;;;;;;4880294;29;20040;-73
2022/07/18 05:42:49;;;;;;;16.30;8.25;;;;;;;;;;4886494;29;20489;-72
2022/07/18 05:45:15;;;;;;;20.17;7.63;;;;;;;;;;4880892;29;20072;-72
2022/07/18 05:47:41;;;;;;;14.43;7.57;;;17.00;98.90;;;;;;4880531;29;20537;-72
2022/07/18 05:50:08;;;;;;;13.93;7.53;;;18.50;99.30;;;;;;4880704;29;20052;-72
2022/07/18 05:52:34;;;;;;;15.90;7.28;;;;;;;;;;4880160;29;20595;-73
2022/07/18 05:55:00;;;;;;;14.50;7.25;;;;;;;;;;4879992;29;20485;-72
2022/07/18 05:57:26;;;;;;;15.23;7.25;;;;;;;;;;4880356;29;20048;-72
2022/07/18 05:59:52;;;;;;;12.93;7.43;;;;;;;;;;4877664;29;20078;-72
2022/07/18 06:02:19;;;;;;;16.15;7.68;;;;;;;;;;4877604;29;20493;-73
2022/07/18 06:04:45;;;;;;;13.65;7.22;;;;;;;;;;4880428;29;20044;-73
2022/07/18 06:07:11;;;;;;;19.77;7.35;;;;;;;;;;4880484;29;20062;-73
2022/07/18 06:09:37;;;;;;;12.77;6.82;;;19.20;99.00;;;;;;4880181;29;20057;-73
2022/07/18 06:12:03;;;;;;;17.23;7.45;;;19.30;97.80;;;;;;4880093;29;20401;-73
2022/07/18 06:14:30;;;;;;;22.95;7.53;;;18.30;94.80;;;;;;4879733;29;20043;-73
2022/07/18 06:16:56;;;;;;;11.40;6.85;;;;;;;;;;4880237;29;20044;-74
2022/07/18 06:19:22;;;;;;;13.45;6.90;;;;;;;;;;4880046;29;20041;-73
2022/07/18 06:21:48;;;;;;;13.00;7.13;;;17.70;98.50;;;;;;4879939;29;20092;-72
2022/07/18 06:24:14;;;;;;;15.48;7.15;;;;;;;;;;4886206;29;20048;-72
2022/07/18 06:26:40;;;;;;;14.93;6.85;;;;;;;;;;4880404;29;20486;-74
2022/07/18 06:29:06;;;;;;;17.17;6.72;;;;;;;;;;4896558;29;20043;-72
2022/07/18 06:31:32;;;;;;;16.08;6.90;;;;;;;;;;4879697;29;20120;-74
2022/07/18 06:33:58;;;;;;;15.93;7.32;;;;;;;;;;4879846;29;20049;-73
2022/07/18 06:36:24;;;;;;;16.98;6.90;;;;;;;;;;4879927;29;20045;-73
2022/07/18 06:38:51;;;;;;;16.15;6.43;;;19.10;94.50;;;;;;4879892;29;20052;-73
2022/07/18 06:41:17;;;;;;;14.02;6.35;;;;;;;;;;4880286;29;20048;-74
2022/07/18 06:43:43;;;;;;;11.65;6.03;;;;;;;;;;4879567;29;20123;-73
2022/07/18 06:46:10;;;;;;;13.35;5.88;;;;;;;;;;4880069;29;20397;-73
2022/07/18 06:48:35;;;;;;;12.55;5.90;;;19.50;97.40;;;;;;4880094;29;20052;-73
2022/07/18 06:51:04;;;;;;;19.27;5.53;;;20.30;96.50;;;;;;4864562;29;20052;-74
2022/07/18 06:53:30;;;;;;;16.30;6.10;;;;;;;;;;4881244;29;20108;-73
2022/07/18 06:55:56;;;;;;;13.00;5.35;;;19.30;97.40;;;;;;4868151;29;20135;-73
2022/07/18 06:58:22;;;;;;;18.05;5.93;;;18.40;96.20;;;;;;4883598;29;20132;-73
2022/07/18 07:00:48;;;;;;;15.38;5.45;;;19.60;93.20;;;;;;4883557;29;20049;-73
2022/07/18 07:03:14;;;;;;;14.45;5.90;;;20.30;97.30;;;;;;4883437;29;20508;-73
2022/07/18 07:05:39;;;;;;;14.93;6.28;;;20.70;96.90;;;;;;4912982;29;20064;-73
2022/07/18 07:08:06;;;;;;;10.52;5.05;;;;;;;;;;4898106;29;20508;-73
2022/07/18 07:10:31;;;;;;;9.43;5.30;;;19.40;94.80;;;;;;4868215;29;20139;-73
2022/07/18 07:12:57;;;;;;;13.98;5.10;;;;;;;;;;4883326;29;20182;-73
2022/07/18 07:15:23;;;;;;;10.82;5.20;;;19.90;92.60;;;;;;4883017;29;20560;-73
2022/07/18 07:17:50;;;;;;;14.80;5.75;;;19.90;92.70;;;;;;4868021;29;20252;-73
2022/07/18 07:20:21;;;;;;;10.85;5.68;;;20.80;96.80;;;;;;4883073;29;20048;-72
2022/07/18 07:22:47;;;;;;;10.02;4.93;;;;;;;;;;4898012;29;20036;-73
2022/07/18 07:25:15;;;;;;;17.88;5.78;;;21.00;94.20;;;;;;4882942;29;20107;-72
2022/07/18 07:27:41;;;;;;;12.13;5.10;;;20.00;96.40;;;;;;4882960;29;20631;-73
2022/07/18 07:30:08;;;;;;;9.57;5.25;;;20.60;96.40;;;;;;4867309;29;20044;-73
2022/07/18 07:32:38;;;;;;;12.52;4.78;;;20.30;92.20;;;;;;4883436;29;20112;-73
2022/07/18 07:35:11;;;;;;;14.38;5.10;;;20.20;95.70;;;;;;4882625;29;20048;-73
2022/07/18 07:37:40;;;;;;;11.75;5.13;;;21.30;96.00;;;;;;4882935;29;20041;-72
2022/07/18 07:40:07;;;;;;;12.25;5.13;;;20.60;95.30;;;;;;4882479;29;20506;-73
2022/07/18 07:42:33;;;;;;;12.27;5.03;;;21.10;94.70;;;;;;4882539;29;20055;-73
2022/07/18 07:44:59;;;;;;;11.55;4.18;;;20.90;95.80;;;;;;4882565;29;20048;-72
2022/07/18 07:47:25;;;;;;;17.55;4.72;;;;;;;;;;4892609;29;20068;-73
2022/07/18 07:49:51;;;;;;;13.18;4.47;;;;;;;;;;4867525;29;20145;-74
2022/07/18 07:52:17;;;;;;;8.32;4.60;;;21.20;95.30;;;;;;4867547;29;20044;-74
2022/07/18 07:54:47;;;;;;;8.68;4.38;;;21.90;95.30;;;;;;4884485;29;20413;-74
2022/07/18 07:57:13;;;;;;;8.40;4.03;;;;;;;;;;4899464;29;20052;-75
2022/07/18 07:59:39;;;;;;;21.90;8.00;;;21.60;92.10;;;;;;4882702;29;20127;-74
2022/07/18 08:02:05;;;;;;;17.77;4.53;;;;;;;;;;4897034;29;20548;-74
2022/07/18 08:04:31;;;;;;;9.30;3.70;;;21.00;89.30;;;;;;4898431;29;20041;-74
2022/07/18 08:06:57;;;;;;;11.13;4.65;;;;;;;;;;4882458;29;20040;-73
2022/07/18 08:09:23;;;;;;;10.30;4.60;;;;;;;;;;4880975;29;20083;-74
2022/07/18 08:11:49;;;;;;;13.88;4.38;;;22.00;90.70;;;;;;4866377;29;20052;-74
2022/07/18 08:14:15;;;;;;;12.60;4.80;;;;;;;;;;4896418;29;20132;-73
2022/07/18 08:16:41;;;;;;;9.45;4.13;;;22.20;94.00;;;;;;4866201;29;20577;-73
2022/07/18 08:19:06;;;;;;;10.10;4.15;;;22.00;93.90;;;;;;4903606;29;20056;-73
2022/07/18 08:21:33;;;;;;;14.15;3.97;;;;;;;;;;4882290;29;20056;-73
2022/07/18 08:23:58;;;;;;;14.45;4.20;;;21.40;93.40;;;;;;4882020;29;20033;-73
2022/07/18 08:26:25;;;;;;;10.43;4.45;;;22.80;93.20;;;;;;4898946;29;20032;-74
2022/07/18 08:28:51;;;;;;;12.82;4.00;;;;;;;;;;4892214;29;20056;-74
2022/07/18 08:31:18;;;;;;;10.27;4.03;;;;;;;;;;4882034;29;20047;-73
2022/07/18 08:33:45;;;;;;;10.27;4.30;;;21.30;92.70;;;;;;4898811;29;20107;-74
2022/07/18 08:36:11;;;;;;;14.55;3.90;;;22.00;87.20;;;;;;4882176;29;20052;-74
2022/07/18 08:38:37;;;;;;;15.30;4.00;;;22.20;92.50;;;;;;4881755;29;20088;-73
2022/07/18 08:41:03;;;;;;;12.38;3.67;;;23.00;92.50;;;;;;4898857;29;20044;-73
2022/07/18 08:43:29;;;;;;;7.88;3.60;;;;;;;;;;4898434;29;20035;-73
2022/07/18 08:46:00;;;;;;;9.32;3.30;;;22.80;92.10;;;;;;4881629;29;20072;-73
2022/07/18 08:48:25;;;;;;;9.73;3.88;;;21.80;86.00;;;;;;4881474;29;20360;-73
2022/07/18 08:50:51;;;;;;;8.85;3.60;;;23.10;85.30;;;;;;4881309;29;20056;-74
2022/07/18 08:53:18;;;;;;;15.07;3.70;;;23.60;91.70;;;;;;4898265;29;20047;-74
2022/07/18 08:55:45;;;;;;;9.57;3.10;;;23.60;91.40;;;;;;4895372;29;20123;-73
2022/07/18 08:58:12;;;;;;;7.88;3.35;;;23.50;91.10;;;;;;4881366;29;20048;-73
2022/07/18 09:00:38;;;;;;;10.45;3.72;;;23.90;91.20;;;;;;4881626;29;20058;-74
2022/07/18 09:03:04;;;;;;;9.95;3.17;;;;;;;;;;4905676;29;20150;-74
2022/07/18 09:05:31;;;;;;;13.15;2.97;;;24.10;90.60;;;;;;4908398;29;20489;-74
2022/07/18 09:08:12;;;;;;;9.93;2.67;;;23.50;90.10;;;;;;4908070;29;20045;-74
2022/07/18 09:10:51;;;;;;;9.85;3.30;;;24.20;90.30;;;;;;4897143;29;20036;-74
2022/07/18 09:13:23;;;;;;;12.05;3.38;;;23.80;81.60;;;;;;4880356;29;20052;-74
2022/07/18 09:16:05;;;;;;;14.87;3.30;;;24.40;90.00;;;;;;4899817;29;20037;-74
2022/07/18 09:18:46;;;;;;;9.45;3.08;;;23.40;88.80;;;;;;4865531;29;20051;-74
2022/07/18 09:21:23;;;;;;;9.32;3.55;;;24.20;78.10;;;;;;4880981;29;20405;-73
2022/07/18 09:23:54;;;;;;;12.35;4.07;;;24.30;77.70;;;;;;4880988;29;20053;-73
2022/07/18 09:26:42;;;;;;;11.80;3.50;;;24.60;88.50;;;;;;4879098;29;20040;-74
2022/07/18 09:29:14;;;;;;;6.78;3.05;;;24.30;88.50;;;;;;4881073;29;20048;-74
2022/07/18 09:31:49;;;;;;;9.27;3.08;;;24.40;79.50;;;;;;4881141;29;20508;-75
2022/07/18 09:34:35;;;;;;;9.25;3.03;;;24.50;87.00;;;;;;4866146;29;20507;-75
2022/07/18 09:37:01;;;;;;;7.40;3.17;;;24.80;87.20;;;;;;4866539;29;20064;-75
2022/07/18 09:39:27;;;;;;;9.45;3.10;;;25.30;86.30;;;;;;4886776;29;20049;-74
2022/07/18 09:41:53;;;;;;;6.90;3.28;;;;;;;;;;4898429;29;20047;-75
2022/07/18 09:44:20;;;;;;;12.50;3.40;;;25.30;83.10;;;;;;4881389;29;20109;-75
2022/07/18 09:47:03;;;;;;;17.20;3.25;;;25.40;85.30;;;;;;4881604;29;20474;-75
2022/07/18 09:49:34;;;;;;;7.32;3.10;;;25.30;83.30;;;;;;4881200;29;20127;-75
2022/07/18 09:52:09;;;;;;;11.40;2.60;;;25.10;83.50;;;;;;4881376;29;20490;-74
2022/07/18 09:54:42;;;;;;;11.57;3.20;;;25.40;73.30;;;;;;4880356;29;20489;-74
2022/07/18 09:57:09;;;;;;;8.02;3.00;;;24.90;83.00;;;;;;4892339;29;20040;-74
2022/07/18 09:59:36;;;;;;;8.38;3.00;;;25.50;83.70;;;;;;4862250;29;20136;-75
2022/07/18 10:02:05;;;;;;;7.32;3.22;;;26.20;82.00;;;;;;4881397;29;20096;-74
2022/07/18 10:04:31;;;;;;;10.57;3.33;;;25.80;81.30;;;;;;4886176;29;20497;-74
2022/07/18 10:06:57;;;;;;;19.27;3.65;;;25.90;80.60;;;;;;4881306;29;20457;-74
2022/07/18 10:09:23;;;;;;;8.15;3.28;;;;;;;;;;4881183;29;20083;-74
2022/07/18 10:11:49;;;;;;;13.45;3.20;;;26.10;80.60;;;;;;4898426;29;20063;-74
2022/07/18 10:14:15;;;;;;;8.88;3.20;;;26.60;81.00;;;;;;4865148;29;20454;-74
2022/07/18 10:16:42;;;;;;;6.10;3.38;;;26.40;80.30;;;;;;4865833;29;20445;-73
2022/07/18 10:19:08;;;;;;;6.68;3.05;;;26.70;80.90;;;;;;4881124;29;20089;-74
2022/07/18 10:21:34;;;;;;;10.40;4.13;;;26.90;80.60;;;;;;4865693;29;20091;-74
2022/07/18 10:24:01;;;;;;;10.25;3.65;;;26.80;80.70;;;;;;4881395;29;20056;-74
2022/07/18 10:26:28;;;;;;;7.07;3.15;;;27.00;80.50;;;;;;4880705;29;20041;-74
2022/07/18 10:28:57;;;;;;;11.45;3.20;;;27.10;80.50;;;;;;4903266;29;20562;-74
2022/07/18 10:31:24;;;;;;;8.85;4.50;;;27.00;79.00;;;;;;4917148;29;20402;-74
2022/07/18 10:33:51;;;;;;;10.07;3.92;;;27.20;78.60;;;;;;4886214;29;20509;-74
2022/07/18 10:36:18;;;;;;;9.20;4.80;;;26.70;77.10;;;;;;4886368;29;20454;-74
2022/07/18 10:39:08;;;;;;;9.20;3.33;;;27.10;66.70;;;;;;4886705;29;20476;-75
2022/07/18 10:41:54;;;;;;;6.28;2.83;;;26.80;77.20;;;;;;4886518;29;20401;-74
2022/07/18 10:44:28;;;;;;;9.27;3.40;;;26.80;76.90;;;;;;4888068;29;20048;-75
2022/07/18 10:47:09;;;;;;;10.52;3.97;;;27.50;77.20;;;;;;4886058;29;20041;-74
2022/07/18 10:49:54;;;;;;;10.82;3.72;;;27.30;66.00;;;;;;4871065;29;21404;-75
2022/07/18 10:52:28;;;;;;;6.72;3.00;;;27.60;76.20;;;;;;4902814;29;20048;-74
2022/07/18 10:57:29;;;;;;;10.70;2.88;;;27.60;76.80;;;;;;4886216;29;20055;-74
2022/07/18 11:00:13;;;;;;;11.07;3.53;;;27.70;77.00;;;;;;4870688;29;20044;-75
2022/07/18 11:02:44;;;;;;;9.27;3.58;;;27.80;75.90;;;;;;4903041;29;20036;-74
2022/07/18 11:05:25;;;;;;;7.80;3.35;;;28.00;74.50;;;;;;4886291;29;20382;-74
2022/07/18 11:08:03;;;;;;;8.25;4.20;;;27.70;75.00;;;;;;4912312;29;20037;-75
2022/07/18 11:10:48;;;;;;;8.05;3.50;;;27.80;75.40;;;;;;4870374;29;20626;-75
2022/07/18 11:13:35;;;;;;;10.90;3.67;;;27.30;76.00;;;;;;4886148;29;20124;-75
2022/07/18 11:16:09;;;;;;;12.07;4.00;;;27.20;76.10;;;;;;4885877;29;20096;-75
2022/07/18 11:18:40;;;;;;;11.48;4.05;;;27.00;75.50;;;;;;4885967;29;20037;-76
2022/07/18 11:21:29;;;;;;;8.70;4.45;;;27.00;75.70;;;;;;4885901;29;20100;-75
2022/07/18 11:24:06;;;;;;;8.73;3.58;;;26.30;76.30;;;;;;4885984;29;20121;-75
2022/07/18 11:26:33;;;;;;;11.13;3.95;;;27.00;78.20;;;;;;4902958;29;20040;-74
2022/07/18 11:29:08;;;;;;;9.10;3.88;;;27.10;75.90;;;;;;4854995;29;20052;-75
2022/07/18 11:31:44;;;;;;;12.35;3.92;;;26.60;76.20;;;;;;4885849;29;20049;-74
2022/07/18 11:34:10;;;;;;;10.63;3.45;;;27.00;76.40;;;;;;4870113;29;20072;-74
2022/07/18 11:36:39;;;;;;;6.35;3.47;;;26.80;76.40;;;;;;4885829;29;20048;-74
2022/07/18 11:39:05;;;;;;;7.20;3.15;;;27.00;76.40;;;;;;4883985;29;20049;-74
2022/07/18 11:41:31;;;;;;;6.05;2.83;;;27.10;69.00;;;;;;4900078;29;20037;-74
2022/07/18 11:43:57;;;;;;;9.85;3.63;;;27.00;69.30;;;;;;4899845;29;20040;-74
2022/07/18 11:46:27;;;;;;;9.82;3.90;;;27.40;77.10;;;;;;4883191;29;20116;-74
2022/07/18 11:49:05;;;;;;;9.48;3.97;;;27.00;69.50;;;;;;4882872;29;20048;-74
2022/07/18 11:51:43;;;;;;;7.80;3.70;;;27.70;66.80;;;;;;4882674;29;20117;-74
2022/07/18 11:54:10;;;;;;;10.18;4.30;;;27.50;76.90;;;;;;4881784;29;20481;-73
2022/07/18 11:56:48;;;;;;;8.25;3.70;;;27.70;76.10;;;;;;4882868;29;20044;-73
2022/07/18 11:59:15;;;;;;;9.30;3.72;;;27.30;75.50;;;;;;4882379;29;20457;-74
2022/07/18 12:01:41;;;;;;;12.32;3.75;;;27.90;76.30;;;;;;4882364;29;20049;-74
2022/07/18 12:04:14;;;;;;;12.00;4.13;;;27.40;68.40;;;;;;4882655;29;20045;-75
2022/07/18 12:06:39;;;;;;;11.05;3.70;;;27.90;74.70;;;;;;4882546;29;20048;-74
2022/07/18 12:09:06;;;;;;;7.13;3.78;;;;;;;;;;4882099;29;20060;-75
2022/07/18 12:11:34;;;;;;;14.55;3.97;;;27.60;74.70;;;;;;4882352;29;20049;-75
2022/07/18 12:14:04;;;;;;;9.18;4.60;;;28.10;75.10;;;;;;4882321;29;20470;-75
2022/07/18 12:16:36;;;;;;;12.13;4.50;;;28.60;74.80;;;;;;4882532;29;20059;-75
2022/07/18 12:19:08;;;;;;;9.38;3.65;;;28.60;74.90;;;;;;4882311;29;20397;-75
2022/07/18 12:21:45;;;;;;;6.97;3.65;;;28.40;64.10;;;;;;4880056;29;20040;-75
2022/07/18 12:24:30;;;;;;;11.20;3.53;;;28.50;73.70;;;;;;4882406;29;20036;-75
2022/07/18 12:27:18;;;;;;;7.65;3.92;;;28.60;73.10;;;;;;4881650;29;20080;-75
2022/07/18 12:29:59;;;;;;;6.40;3.55;;;29.00;62.90;;;;;;4881871;29;20052;-75
2022/07/18 12:32:26;;;;;;;10.23;3.90;;;28.90;63.40;;;;;;4881941;29;20505;-75
2022/07/18 12:34:57;;;;;;;8.25;3.67;;;29.00;70.80;;;;;;4882168;29;20123;-75
2022/07/18 12:37:24;;;;;;;8.57;3.80;;;29.40;71.40;;;;;;4879720;29;20124;-75
2022/07/18 12:39:59;;;;;;;6.57;3.53;;;29.10;70.70;;;;;;4882031;29;20037;-75
2022/07/18 12:43:01;;;;;;;7.50;3.35;;;29.20;71.90;;;;;;4881500;29;20047;-75
2022/07/18 12:45:27;;;;;;;8.45;3.22;;;28.50;72.40;;;;;;4881632;29;20032;-75
2022/07/18 12:47:52;;;;;;;8.35;3.33;;;28.70;72.90;;;;;;4912347;29;20409;-75
2022/07/18 12:50:18;;;;;;;6.70;3.20;;;28.90;72.20;;;;;;4898010;29;20040;-75
2022/07/18 12:52:44;;;;;;;7.47;3.15;;;29.20;71.90;;;;;;4882018;29;20048;-75
2022/07/18 12:55:10;;;;;;;7.60;3.30;;;;;;;;;;4882791;29;20450;-75
2022/07/18 12:57:35;;;;;;;7.68;2.78;;;29.20;71.70;;;;;;4881538;29;20489;-75
2022/07/18 13:00:02;;;;;;;8.13;3.38;;;29.40;71.20;;;;;;4911576;29;20036;-75
2022/07/18 13:02:28;;;;;;;6.78;3.13;;;29.70;71.20;;;;;;4881511;29;20142;-75
2022/07/18 13:04:54;;;;;;;9.25;3.30;;;29.60;70.50;;;;;;4881689;29;20525;-75
2022/07/18 13:07:20;;;;;;;7.07;3.67;;;;;;;;;;4889707;29;20048;-75
2022/07/18 13:09:45;;;;;;;5.07;3.03;;;30.40;70.90;;;;;;4881333;29;20139;-75
2022/07/18 13:12:11;;;;;;;9.30;3.10;;;;;;;;;;4902770;29;20456;-75
2022/07/18 13:14:38;;;;;;;7.32;2.95;;;;;;;;;;4881326;29;20053;-75
2022/07/18 13:17:03;;;;;;;7.30;2.97;;;30.50;69.80;;;;;;4880987;29;20512;-75
2022/07/18 13:19:29;;;;;;;5.80;3.00;;;30.40;69.70;;;;;;4897851;29;20044;-75